Port Phillip Bay, Australia
Current Conditions -  °F | °C
As of 9:00 AM on Thursday 23 Oct 2014 (Local Time) from YMAV Reporting Station
Overcast Overcast  
Wind Chill: 57°   Ceiling: 1100
Heat Index: 57°   Visibility: 6mi
Dew Point: 54°   Wind: 10mph
Humidity: 88%   Direction: 170°S
Pressure: 30.12"   Gusts: NA
Location:  38.07°S, 144.85°E
Report Text: YMAV 222200Z AUTO 17009KT 9000 // OVC011 14/12 Q1020
Loading
Personal Weather Stations






























Interactive Weather Map
Tropical Storm Tracking
New forecast layout! Learn more

10-Day Weather Forecast

Advertisements
Track Severe Weather on mobile